Time;durP1;ratioP1;P1;durP2;ratioP2;P2;SDS_P1;SDS_P2;PMS_P1;PMS_P2;Temp;Humidity;BMP_temperature;BMP_pressure;BME280_temperature;BME280_humidity;BME280_pressure;Samples;Min_cycle;Max_cycle;Signal;HPM_P1;HPM_P2
2021/05/20 00:00:45;;;;;;;18.55;12.35;;;;;;;9.57;83.01;97772.73;1667873;86;21031;-76
2021/05/20 00:03:13;;;;;;;21.02;14.33;;;;;;;9.53;83.20;97773.84;1668035;85;20968;-76
2021/05/20 00:05:39;;;;;;;19.23;13.15;;;;;;;9.52;82.87;97775.48;1668509;85;20951;-76
2021/05/20 00:08:05;;;;;;;15.68;11.68;;;;;;;9.45;82.56;97760.09;1668526;86;20912;-76
2021/05/20 00:10:31;;;;;;;16.85;12.28;;;;;;;9.50;83.31;97770.36;1667775;85;21138;-76
2021/05/20 00:12:57;;;;;;;16.32;11.90;;;;;;;9.50;82.94;97775.77;1668445;86;21006;-76
2021/05/20 00:15:23;;;;;;;18.27;11.85;;;;;;;9.53;83.02;97778.45;1669187;84;21026;-76
2021/05/20 00:17:49;;;;;;;17.95;12.10;;;;;;;9.54;82.86;97773.30;1668416;81;21015;-76
2021/05/20 00:20:15;;;;;;;20.30;12.50;;;;;;;9.59;82.44;97771.94;1668902;84;21242;-76
2021/05/20 00:22:41;;;;;;;17.15;12.13;;;;;;;9.56;83.28;97774.63;1668466;81;21197;-76
2021/05/20 00:25:08;;;;;;;17.98;11.55;;;;;;;9.58;82.68;97771.67;1668705;81;20967;-76
2021/05/20 00:27:34;;;;;;;20.57;12.53;;;;;;;9.53;84.69;97775.20;1668517;81;20999;-76
2021/05/20 00:30:00;;;;;;;19.15;14.53;;;;;;;9.53;84.69;97775.20;1668330;81;20856;-76
2021/05/20 00:32:26;;;;;;;15.88;12.58;;;;;;;9.53;83.41;97778.45;1668358;84;21027;-76
2021/05/20 00:34:52;;;;;;;21.42;14.25;;;;;;;9.53;83.63;97776.55;1668082;84;20984;-75
2021/05/20 00:37:18;;;;;;;15.18;12.30;;;;;;;9.51;83.22;97784.14;1667456;84;20956;-75
2021/05/20 00:39:44;;;;;;;29.37;18.55;;;;;;;9.46;82.58;97787.41;1667764;84;21503;-76
2021/05/20 00:42:11;;;;;;;17.12;12.00;;;;;;;9.45;83.67;97787.95;1693795;77;20891;-77
2021/05/20 00:44:57;;;;;;;16.62;11.22;;;;;;;9.46;83.87;97790.11;1787958;77;20964;-76
2021/05/20 00:47:34;;;;;;;17.25;11.90;;;;;;;9.47;82.80;97790.37;1814918;76;21094;-75
2021/05/20 00:49:59;;;;;;;19.27;11.40;;;;;;;9.45;83.00;97783.09;1791257;80;21011;-76
2021/05/20 00:52:25;;;;;;;23.45;12.07;;;;;;;9.46;82.47;97792.27;1792944;77;20947;-75
2021/05/20 00:54:54;;;;;;;16.77;10.80;;;;;;;9.42;82.85;97791.22;1793114;77;21217;-76
2021/05/20 00:57:21;;;;;;;15.13;10.48;;;;;;;9.37;83.55;97791.23;1730149;79;20972;-76
2021/05/20 00:59:50;;;;;;;21.12;12.95;;;;;;;9.36;83.65;97789.62;1757419;81;21115;-76
2021/05/20 01:02:17;;;;;;;18.23;11.30;;;;;;;9.37;83.26;97790.42;1757147;79;20969;-75
2021/05/20 01:04:43;;;;;;;18.27;12.07;;;;;;;9.37;82.67;97786.37;1757120;79;21112;-76
2021/05/20 01:07:09;;;;;;;18.15;11.73;;;;;;;9.36;82.47;97796.38;1737958;81;20923;-76
2021/05/20 01:09:35;;;;;;;17.62;12.88;;;;;;;9.34;82.54;97791.80;1738196;82;21227;-75
2021/05/20 01:12:07;;;;;;;21.73;14.65;;;;;;;9.30;82.64;97786.66;1737634;81;21096;-77
2021/05/20 01:14:41;;;;;;;16.85;12.25;;;;;;;9.32;83.19;97793.97;1737898;80;20963;-76
2021/05/20 01:17:07;;;;;;;23.47;14.35;;;;;;;9.37;83.65;97795.28;1735234;80;21037;-76
2021/05/20 01:19:39;;;;;;;24.32;14.78;;;;;;;9.37;83.12;97796.64;1729781;80;21198;-75
2021/05/20 01:22:05;;;;;;;22.67;13.53;;;;;;;9.38;83.24;97794.20;1803016;78;20922;-76
2021/05/20 01:24:32;;;;;;;21.80;13.95;;;;;;;9.41;82.48;97795.56;1818499;79;21235;-75
2021/05/20 01:26:58;;;;;;;17.87;11.00;;;;;;;9.43;82.35;97792.03;1777290;79;21020;-76
2021/05/20 01:29:24;;;;;;;16.97;12.43;;;;;;;9.44;82.48;97793.64;1818980;79;20956;-78
2021/05/20 01:31:50;;;;;;;21.02;12.13;;;;;;;9.50;82.41;97788.48;1816038;79;21450;-76
2021/05/20 01:34:15;;;;;;;20.37;12.33;;;;;;;9.57;82.56;97791.16;1773673;80;20957;-76
2021/05/20 01:36:41;;;;;;;19.05;12.15;;;;;;;9.57;82.39;97790.31;1815015;79;21291;-76
2021/05/20 01:39:07;;;;;;;21.07;13.20;;;;;;;9.57;82.38;97789.80;1773748;81;21095;-76
2021/05/20 01:41:33;;;;;;;21.42;11.80;;;;;;;9.58;83.62;97788.71;1814865;78;21534;-76
2021/05/20 01:43:59;;;;;;;16.73;11.83;;;;;;;9.62;83.04;97793.01;1814975;78;20869;-76
2021/05/20 01:46:25;;;;;;;24.27;11.97;;;;;;;9.60;82.92;97790.58;1814995;79;21003;-76
2021/05/20 01:48:53;;;;;;;17.48;12.60;;;;;;;9.55;83.57;97794.66;1773781;81;21075;-76
2021/05/20 01:51:20;;;;;;;17.80;11.73;;;;;;;9.44;84.70;97784.98;1814840;79;21021;-76
2021/05/20 01:53:51;;;;;;;18.77;13.08;;;;;;;9.52;82.73;97786.30;1773651;81;20980;-76
2021/05/20 01:56:18;;;;;;;17.70;11.88;;;;;;;9.42;83.05;97795.28;1813658;79;20973;-76
2021/05/20 01:58:44;;;;;;;22.48;12.43;;;;;;;9.36;82.55;97794.22;1814790;79;21377;-76
2021/05/20 02:01:10;;;;;;;24.10;16.20;;;;;;;9.28;82.61;97788.29;1773645;81;21215;-76
2021/05/20 02:03:36;;;;;;;19.23;11.50;;;;;;;9.32;82.47;97789.38;1814868;79;20964;-76
2021/05/20 02:06:03;;;;;;;20.10;13.30;;;;;;;9.31;82.71;97783.70;1815058;79;20960;-76
2021/05/20 02:08:33;;;;;;;22.00;13.62;;;;;;;9.28;82.66;97786.94;1814815;79;21059;-76
2021/05/20 02:10:59;;;;;;;20.17;12.68;;;;;;;9.32;83.22;97790.73;1813895;79;21059;-76
2021/05/20 02:13:26;;;;;;;18.12;13.10;;;;;;;9.31;82.66;97797.73;1773674;81;20988;-76
2021/05/20 02:15:52;;;;;;;17.87;12.73;;;;;;;9.29;83.54;97793.96;1814836;79;20987;-76
2021/05/20 02:18:18;;;;;;;17.20;11.83;;;;;;;9.26;83.92;97794.53;1813607;78;20881;-76
2021/05/20 02:20:44;;;;;;;17.20;12.00;;;;;;;9.29;83.22;97798.56;1761520;80;21092;-76
2021/05/20 02:23:11;;;;;;;17.92;12.95;;;;;;;9.30;84.10;97801.53;1751829;80;21024;-76
2021/05/20 02:25:37;;;;;;;21.33;13.72;;;;;;;9.35;83.97;97799.36;1761590;81;21440;-76
2021/05/20 02:28:03;;;;;;;26.77;14.10;;;;;;;9.35;83.97;97799.36;1761432;80;21020;-76
2021/05/20 02:30:30;;;;;;;19.73;14.40;;;;;;;9.29;84.38;97801.27;1761580;80;21005;-76
2021/05/20 02:32:56;;;;;;;25.20;14.70;;;;;;;9.30;84.24;97804.23;1761534;80;20941;-76
2021/05/20 02:35:22;;;;;;;28.10;17.17;;;;;;;9.33;84.03;97803.70;1761413;80;21035;-76
2021/05/20 02:37:48;;;;;;;23.55;14.43;;;;;;;9.37;84.26;97798.53;1771783;80;21104;-76
2021/05/20 02:40:15;;;;;;;31.65;17.17;;;;;;;9.37;83.79;97801.23;1761301;80;21052;-76
2021/05/20 02:42:41;;;;;;;23.75;15.28;;;;;;;9.32;84.14;97805.59;1761491;80;21095;-76
2021/05/20 02:45:11;;;;;;;24.47;15.65;;;;;;;9.36;83.76;97807.73;1761570;80;21024;-76
2021/05/20 02:47:37;;;;;;;22.82;15.20;;;;;;;9.44;83.80;97804.45;1761625;81;20964;-76
2021/05/20 02:50:04;;;;;;;26.75;15.28;;;;;;;9.52;83.71;97808.75;1761629;80;20987;-76
2021/05/20 02:52:30;;;;;;;18.60;14.15;;;;;;;9.61;83.69;97807.63;1761388;81;20861;-76
2021/05/20 02:54:57;;;;;;;29.57;15.63;;;;;;;9.69;83.52;97814.35;1761381;81;20912;-76
2021/05/20 02:57:23;;;;;;;20.55;13.85;;;;;;;9.75;83.34;97818.66;1761485;80;21040;-76
2021/05/20 02:59:49;;;;;;;24.72;14.93;;;;;;;9.81;83.23;97820.22;1761646;80;21028;-76
2021/05/20 03:02:15;;;;;;;26.15;16.27;;;;;;;9.86;83.07;97819.66;1761358;80;21852;-76
2021/05/20 03:04:41;;;;;;;22.60;14.58;;;;;;;9.84;82.77;97825.09;1761385;80;20949;-76
2021/05/20 03:07:07;;;;;;;30.43;15.98;;;;;;;9.84;82.43;97829.16;1761353;81;20874;-76
2021/05/20 03:09:33;;;;;;;27.22;17.17;;;;;;;9.74;82.24;97830.02;1761468;81;20870;-76
2021/05/20 03:12:00;;;;;;;26.30;15.03;;;;;;;9.67;82.22;97835.47;1761513;80;20945;-76
2021/05/20 03:14:26;;;;;;;26.93;15.05;;;;;;;9.60;82.80;97833.06;1761320;80;21655;-76
2021/05/20 03:16:52;;;;;;;22.73;14.63;;;;;;;9.76;82.51;97831.90;1761351;80;21538;-76
2021/05/20 03:19:19;;;;;;;21.85;13.95;;;;;;;9.90;82.46;97843.71;1788835;80;20921;-76
2021/05/20 03:21:45;;;;;;;23.62;14.33;;;;;;;9.90;82.46;97843.71;1766263;80;21028;-76
2021/05/20 03:24:12;;;;;;;25.82;15.88;;;;;;;9.97;82.44;97839.35;1790854;79;20952;-76
2021/05/20 03:26:37;;;;;;;23.73;17.00;;;;;;;9.99;82.19;97837.71;1790859;79;21681;-76
2021/05/20 03:29:04;;;;;;;24.05;14.15;;;;;;;10.00;82.14;97837.45;1790828;80;20996;-76
2021/05/20 03:31:32;;;;;;;20.45;14.25;;;;;;;10.04;82.09;97837.14;1790956;79;20980;-76
2021/05/20 03:33:58;;;;;;;19.95;13.98;;;;;;;10.03;81.78;97838.78;1790969;80;21447;-77
2021/05/20 03:36:24;;;;;;;18.92;13.85;;;;;;;10.01;81.77;97840.42;1790904;80;21469;-76
2021/05/20 03:38:50;;;;;;;25.72;16.23;;;;;;;10.09;81.88;97848.50;1790895;79;21893;-76
2021/05/20 03:41:16;;;;;;;24.70;15.45;;;;;;;10.16;81.85;97846.27;1791342;80;21004;-77
2021/05/20 03:43:42;;;;;;;19.87;13.03;;;;;;;10.16;81.85;97846.27;1790977;79;20849;-76
2021/05/20 03:46:08;;;;;;;33.02;17.70;;;;;;;10.20;81.31;97848.69;1790899;80;20932;-76
2021/05/20 03:48:34;;;;;;;25.92;17.25;;;;;;;10.25;81.18;97847.31;1790942;80;20875;-76
2021/05/20 03:51:01;;;;;;;22.60;14.07;;;;;;;10.34;80.98;97849.72;1791506;79;21113;-76
2021/05/20 03:53:31;;;;;;;21.85;17.02;;;;;;;10.46;80.25;97857.47;1791031;80;21460;-76
2021/05/20 03:56:01;;;;;;;26.10;14.78;;;;;;;10.46;80.25;97857.47;1790908;80;20976;-76
2021/05/20 03:58:27;;;;;;;21.52;13.62;;;;;;;10.37;79.61;97849.14;1790865;79;21082;-76
2021/05/20 04:00:54;;;;;;;21.00;13.70;;;;;;;10.37;79.61;97849.14;1791026;80;20929;-76
2021/05/20 04:03:27;;;;;;;27.50;13.40;;;;;;;10.39;79.17;97850.20;1791006;79;21717;-76
2021/05/20 04:05:57;;;;;;;20.55;14.33;;;;;;;10.49;79.28;97862.31;1790850;80;20929;-76
2021/05/20 04:08:23;;;;;;;15.60;12.23;;;;;;;10.49;78.80;97867.73;1790894;79;20987;-76
2021/05/20 04:10:50;;;;;;;17.30;11.97;;;;;;;10.38;78.22;97871.62;1791167;80;20845;-76
2021/05/20 04:13:36;;;;;;;18.32;12.55;;;;;;;10.37;78.24;97872.71;1766466;80;20948;-76
2021/05/20 04:16:03;;;;;;;20.02;13.60;;;;;;;10.33;78.54;97867.58;1790886;79;21123;-76
2021/05/20 04:18:29;;;;;;;21.02;13.50;;;;;;;10.41;78.46;97879.17;1787825;79;21028;-76
2021/05/20 04:20:55;;;;;;;19.85;12.00;;;;;;;10.49;78.14;97879.12;1782794;80;21028;-76
2021/05/20 04:23:21;;;;;;;17.37;11.08;;;;;;;10.65;78.18;97881.43;1782222;80;20968;-76
2021/05/20 04:25:47;;;;;;;16.12;11.90;;;;;;;10.81;77.92;97882.66;1782384;80;21075;-76
2021/05/20 04:28:14;;;;;;;21.75;11.65;;;;;;;10.87;76.67;97886.95;1756042;80;21721;-76
2021/05/20 04:30:40;;;;;;;18.25;11.08;;;;;;;10.90;76.41;97888.54;1756007;80;21039;-76
2021/05/20 04:33:06;;;;;;;13.28;10.50;;;;;;;10.94;75.98;97880.11;1782235;80;21007;-76
2021/05/20 04:35:33;;;;;;;14.68;11.22;;;;;;;10.90;75.71;97882.31;1782297;80;20971;-76
2021/05/20 04:37:59;;;;;;;16.62;10.60;;;;;;;11.07;75.24;97888.12;1782207;80;21079;-76
2021/05/20 04:40:26;;;;;;;23.20;11.68;;;;;;;11.14;75.20;97887.78;1782429;80;21104;-76
2021/05/20 04:42:52;;;;;;;17.50;11.08;;;;;;;11.20;75.39;97888.01;1782114;80;20941;-76
2021/05/20 04:45:18;;;;;;;15.68;10.78;;;;;;;11.24;74.14;97891.75;1782313;80;21040;-76
2021/05/20 04:47:45;;;;;;;16.65;10.98;;;;;;;11.42;73.83;97892.37;1755873;80;20873;-76
2021/05/20 04:50:12;;;;;;;15.70;11.22;;;;;;;11.37;73.33;97892.44;1756099;80;20937;-76
2021/05/20 04:52:39;;;;;;;16.52;10.90;;;;;;;11.37;73.50;97900.58;1782322;80;21020;-76
2021/05/20 04:55:06;;;;;;;21.40;14.10;;;;;;;11.52;73.57;97897.67;1755853;80;21477;-76
2021/05/20 04:57:32;;;;;;;27.65;22.42;;;;;;;11.63;73.83;97902.46;1782443;80;20917;-76
2021/05/20 04:59:59;;;;;;;25.43;17.82;;;;;;;11.61;72.51;97902.47;1782316;80;20880;-76
2021/05/20 05:02:25;;;;;;;51.77;31.30;;;;;;;11.46;72.14;97912.97;1782321;80;21369;-76
2021/05/20 05:04:51;;;;;;;65.05;38.60;;;;;;;11.54;72.66;97909.62;1782317;80;21890;-76
2021/05/20 05:07:17;;;;;;;73.70;47.08;;;;;;;11.66;72.83;97908.66;1782232;80;20881;-76
2021/05/20 05:09:43;;;;;;;81.53;50.92;;;;;;;11.64;72.83;97916.29;1782403;80;20976;-76
2021/05/20 05:12:10;;;;;;;31.17;23.83;;;;;;;11.66;72.52;97918.16;1782843;80;20940;-76
2021/05/20 05:14:35;;;;;;;40.52;27.02;;;;;;;11.39;71.93;97925.51;1782240;80;20949;-76
2021/05/20 05:17:02;;;;;;;34.48;22.77;;;;;;;11.43;72.72;97917.59;1782704;80;20966;-76
2021/05/20 05:19:28;;;;;;;22.80;15.55;;;;;;;11.44;73.19;97916.49;1782182;80;21399;-76
2021/05/20 05:21:54;;;;;;;17.60;12.95;;;;;;;11.42;73.55;97921.41;1782176;80;21203;-76
2021/05/20 05:24:20;;;;;;;20.57;14.83;;;;;;;11.34;72.86;97920.67;1782327;80;21051;-76
2021/05/20 05:26:46;;;;;;;26.07;17.02;;;;;;;11.35;73.13;97923.09;1782406;80;20892;-76
2021/05/20 05:29:12;;;;;;;22.95;16.50;;;;;;;11.43;73.03;97919.75;1782270;80;21461;-76
2021/05/20 05:31:38;;;;;;;18.30;11.73;;;;;;;11.51;72.71;97917.77;1782207;80;21083;-76
2021/05/20 05:34:04;;;;;;;20.88;14.73;;;;;;;11.46;72.82;97918.39;1782175;80;20897;-76
2021/05/20 05:36:30;;;;;;;19.10;13.75;;;;;;;11.67;72.57;97921.67;1782429;80;20882;-76
2021/05/20 05:38:56;;;;;;;19.05;11.73;;;;;;;11.78;72.62;97921.81;1782252;80;20924;-76
2021/05/20 05:41:22;;;;;;;16.05;11.97;;;;;;;12.12;72.41;97920.33;1782702;80;21223;-76
2021/05/20 05:43:48;;;;;;;18.57;11.45;;;;;;;11.93;70.71;97918.95;1782080;80;20940;-76
2021/05/20 05:46:14;;;;;;;13.78;10.82;;;;;;;11.92;70.78;97922.77;1782268;80;21063;-76
2021/05/20 05:48:40;;;;;;;16.45;11.85;;;;;;;11.92;70.51;97926.03;1782524;80;20924;-76
2021/05/20 05:51:11;;;;;;;17.20;12.20;;;;;;;11.73;70.83;97921.89;1782270;80;20984;-76
2021/05/20 05:53:35;;;;;;;15.50;10.38;;;;;;;11.89;71.12;97926.07;1781612;80;21362;-76
2021/05/20 05:56:01;;;;;;;13.80;10.13;;;;;;;11.94;71.51;97931.42;1782100;80;20921;-76
2021/05/20 05:58:27;;;;;;;15.28;10.58;;;;;;;11.96;71.61;97933.84;1782215;80;21127;-76
2021/05/20 06:00:54;;;;;;;16.32;10.82;;;;;;;11.97;71.58;97932.22;1782424;80;20877;-76
2021/05/20 06:03:20;;;;;;;15.20;9.63;;;;;;;12.02;71.20;97938.13;1755971;80;21071;-76
2021/05/20 06:05:48;;;;;;;16.73;9.90;;;;;;;11.93;71.14;97940.67;1782376;80;21149;-77
2021/05/20 06:08:14;;;;;;;16.65;10.88;;;;;;;11.91;71.71;97944.78;1782062;80;20956;-76
2021/05/20 06:10:40;;;;;;;17.42;11.22;;;;;;;11.83;71.98;97944.88;1782197;80;20929;-77
2021/05/20 06:13:06;;;;;;;15.30;11.30;;;;;;;11.64;71.83;97945.34;1782355;80;20849;-77
2021/05/20 06:15:32;;;;;;;15.10;11.00;;;;;;;11.39;72.84;97953.19;1782261;80;21020;-77
2021/05/20 06:17:57;;;;;;;16.90;12.60;;;;;;;11.40;73.03;97950.73;1755851;80;22703;-77
2021/05/20 06:20:23;;;;;;;20.95;12.55;;;;;;;11.20;73.71;97951.74;1782117;80;21555;-77
2021/05/20 06:22:50;;;;;;;19.95;12.43;;;;;;;11.09;74.63;97956.97;1782188;80;21489;-76
2021/05/20 06:25:15;;;;;;;17.25;11.25;;;;;;;10.96;74.75;97947.05;1782146;80;20917;-77
2021/05/20 06:27:41;;;;;;;12.80;9.88;;;;;;;11.06;74.72;97957.55;1782192;80;20948;-76
2021/05/20 06:30:08;;;;;;;16.00;10.15;;;;;;;11.07;75.11;97954.55;1782311;80;20987;-77
2021/05/20 06:32:36;;;;;;;45.60;27.77;;;;;;;11.21;74.47;97956.88;1782295;80;21035;-76
2021/05/20 06:35:04;;;;;;;18.62;11.97;;;;;;;11.38;74.19;97954.28;1782296;80;20993;-77
2021/05/20 06:37:31;;;;;;;24.87;18.60;;;;;;;11.34;74.01;97962.17;1756170;80;21075;-76
2021/05/20 06:39:57;;;;;;;20.85;14.73;;;;;;;11.36;73.67;97957.26;1756137;80;20953;-76
2021/05/20 06:42:23;;;;;;;21.35;12.13;;;;;;;11.39;73.73;97957.25;1782169;80;21075;-76
2021/05/20 06:44:49;;;;;;;18.00;13.80;;;;;;;11.35;73.85;97956.20;1782075;80;21036;-76
2021/05/20 06:47:15;;;;;;;34.15;30.55;;;;;;;11.12;74.66;97959.94;1782326;80;21001;-76
2021/05/20 06:49:42;;;;;;;26.70;22.32;;;;;;;10.94;74.88;97961.45;1782327;80;21016;-76
2021/05/20 06:52:08;;;;;;;22.73;19.55;;;;;;;10.92;75.05;97959.55;1782205;80;21341;-76
2021/05/20 06:54:34;;;;;;;17.73;14.05;;;;;;;11.04;74.60;97958.39;1782220;80;20955;-76
2021/05/20 06:57:05;;;;;;;18.62;12.68;;;;;;;10.99;75.01;97955.97;1782121;80;20914;-76
2021/05/20 07:02:12;;;;;;;19.77;11.83;;;;;;;11.57;74.11;97954.62;1782632;80;20964;-77
2021/05/20 07:04:38;;;;;;;18.48;12.80;;;;;;;11.69;72.57;97954.76;1782178;80;21027;-76
2021/05/20 07:07:05;;;;;;;18.27;12.05;;;;;;;11.74;73.17;97958.23;1782221;80;21124;-76
2021/05/20 07:09:33;;;;;;;21.00;15.00;;;;;;;11.59;73.70;97958.39;1782175;80;21012;-76
2021/05/20 07:12:00;;;;;;;19.98;13.93;;;;;;;11.64;73.44;97967.86;1782263;80;20937;-76
2021/05/20 07:14:26;;;;;;;20.90;12.95;;;;;;;11.58;73.66;97966.28;1782076;80;20917;-76
2021/05/20 07:16:52;;;;;;;18.87;13.45;;;;;;;11.57;73.43;97969.55;1782369;80;20940;-76
2021/05/20 07:19:19;;;;;;;20.88;14.83;;;;;;;11.62;73.07;97973.29;1779706;80;21073;-76
2021/05/20 07:21:46;;;;;;;20.20;12.53;;;;;;;11.72;72.95;97974.56;1814695;78;20925;-77
2021/05/20 07:24:12;;;;;;;15.98;10.82;;;;;;;11.92;72.65;97974.91;1773893;81;20942;-77
2021/05/20 07:26:38;;;;;;;13.88;10.08;;;;;;;12.00;71.23;97976.98;1815344;78;20980;-76
2021/05/20 07:29:05;;;;;;;17.23;10.00;;;;;;;12.22;71.81;97977.27;1815296;79;20960;-76
2021/05/20 07:31:32;;;;;;;19.20;10.10;;;;;;;12.45;70.69;97967.98;1785311;79;21771;-76
2021/05/20 07:33:58;;;;;;;15.95;10.50;;;;;;;12.52;70.13;97965.16;1773456;81;21150;-76
2021/05/20 07:36:24;;;;;;;16.67;9.98;;;;;;;12.60;69.31;97971.86;1814941;78;21032;-76
2021/05/20 07:38:50;;;;;;;15.83;10.48;;;;;;;13.05;69.93;97971.70;1814785;79;21472;-76
2021/05/20 07:41:17;;;;;;;14.58;10.08;;;;;;;13.31;67.34;97967.23;1773580;81;20914;-76
2021/05/20 07:43:43;;;;;;;16.10;11.05;;;;;;;13.79;67.94;97978.63;1785402;79;21095;-76
2021/05/20 07:46:10;;;;;;;12.63;10.00;;;;;;;13.78;65.25;97969.65;1815167;79;21004;-76
2021/05/20 07:48:36;;;;;;;14.30;9.80;;;;;;;13.93;64.48;97963.63;1773670;81;20985;-76
2021/05/20 07:51:04;;;;;;;14.03;9.60;;;;;;;14.58;63.19;97971.58;1814872;78;21421;-76
2021/05/20 07:53:30;;;;;;;16.30;11.15;;;;;;;14.97;62.22;97964.70;1814898;79;20996;-76
2021/05/20 07:55:56;;;;;;;14.38;11.00;;;;;;;14.88;61.49;97963.27;1773583;80;21002;-77
2021/05/20 07:58:22;;;;;;;14.98;10.60;;;;;;;14.60;60.84;97975.59;1814639;79;20858;-76
2021/05/20 08:00:48;;;;;;;14.28;11.48;;;;;;;15.11;59.92;97970.33;1814978;79;20953;-76
2021/05/20 08:05:53;;;;;;;13.85;10.25;;;;;;;16.77;60.19;97958.42;1814884;79;20955;-77
2021/05/20 08:13:21;;;;;;;;;;;;;;;17.58;55.82;97959.03;1817493;79;20953;-76
2021/05/20 08:15:47;;;;;;;13.10;7.22;;;;;;;18.00;53.93;97960.61;1815032;78;20165;-76
2021/05/20 08:18:14;;;;;;;11.03;7.70;;;;;;;17.30;52.83;97968.20;1815021;79;20842;-76
2021/05/20 08:20:40;;;;;;;9.90;7.45;;;;;;;16.55;53.41;97973.00;1821296;78;21241;-76
2021/05/20 08:23:06;;;;;;;13.83;7.97;;;;;;;16.64;54.48;97975.18;1823792;78;20937;-77
2021/05/20 08:25:32;;;;;;;11.75;8.98;;;;;;;16.86;54.07;97957.05;1796420;78;21456;-76
2021/05/20 08:27:58;;;;;;;11.33;7.92;;;;;;;17.02;54.74;97952.70;1823960;78;21008;-78
2021/05/20 08:30:24;;;;;;;12.33;8.38;;;;;;;16.77;52.92;97956.25;1824032;78;20924;-78
2021/05/20 08:32:50;;;;;;;10.88;7.50;;;;;;;16.61;53.61;97965.45;1824257;78;20954;-77
2021/05/20 08:35:16;;;;;;;11.35;7.10;;;;;;;16.76;52.89;97952.71;1796058;78;20849;-78
2021/05/20 08:37:42;;;;;;;9.30;7.37;;;;;;;16.78;54.04;97957.30;1824272;78;21444;-77
2021/05/20 08:40:12;;;;;;;8.63;6.62;;;;;;;17.25;51.75;97957.98;1823881;78;20884;-77
2021/05/20 08:42:38;;;;;;;12.50;7.50;;;;;;;16.52;51.75;97968.74;1823814;78;21422;-76
2021/05/20 08:45:13;;;;;;;10.95;7.72;;;;;;;16.63;52.39;97969.47;1823728;78;21087;-76
2021/05/20 08:47:39;;;;;;;15.48;10.63;;;;;;;17.47;52.04;97964.06;1823802;78;21055;-77
2021/05/20 08:50:05;;;;;;;16.52;12.28;;;;;;;16.93;52.07;97959.31;1796149;78;20992;-77
2021/05/20 08:52:33;;;;;;;8.33;6.67;;;;;;;16.37;52.65;97967.26;1756450;80;21020;-77
2021/05/20 08:55:01;;;;;;;11.15;7.08;;;;;;;15.59;53.39;97967.50;1780283;80;20959;-77
2021/05/20 08:57:27;;;;;;;10.80;6.70;;;;;;;15.42;54.22;97965.48;1759703;81;21105;-77
2021/05/20 08:59:53;;;;;;;5.95;5.22;;;;;;;15.22;55.67;97968.98;1759378;81;21482;-77
2021/05/20 09:02:28;;;;;;;7.40;6.42;;;;;;;15.18;55.68;97969.90;1759643;81;20919;-77
2021/05/20 09:05:18;;;;;;;10.82;7.42;;;;;;;15.20;55.65;97971.75;1756488;80;21394;-77
2021/05/20 09:07:55;;;;;;;11.03;7.87;;;;;;;14.99;56.74;97972.81;1759687;80;20921;-77
2021/05/20 09:10:28;;;;;;;13.43;6.05;;;;;;;14.66;57.50;97977.67;1782083;80;21903;-76
2021/05/20 09:13:01;;;;;;;9.45;5.95;;;;;;;14.33;58.79;97975.06;1780275;80;21009;-77
2021/05/20 09:15:37;;;;;;;9.88;5.65;;;;;;;14.45;59.06;97977.33;1782307;80;20918;-77
2021/05/20 09:18:14;;;;;;;9.63;6.80;;;;;;;14.30;59.42;97982.50;1782089;80;21016;-77
2021/05/20 09:20:47;;;;;;;31.82;23.73;;;;;;;14.00;59.08;97981.75;1778030;80;21484;-76
2021/05/20 09:23:15;;;;;;;14.00;9.25;;;;;;;13.89;58.52;97978.98;1781365;80;21129;-77
2021/05/20 09:25:43;;;;;;;10.32;7.95;;;;;;;14.00;59.60;97970.30;1782287;80;21464;-77
2021/05/20 09:28:10;;;;;;;13.18;6.65;;;;;;;14.21;59.76;97974.80;1782620;80;21012;-77
2021/05/20 09:30:44;;;;;;;10.48;6.53;;;;;;;14.44;59.72;97978.41;1782169;80;21027;-77
2021/05/20 09:33:13;;;;;;;7.75;5.50;;;;;;;14.62;58.09;97975.32;1782497;80;21052;-76
2021/05/20 09:35:48;;;;;;;11.80;5.70;;;;;;;14.96;57.15;97974.81;1782495;80;21255;-76
2021/05/20 09:38:22;;;;;;;5.90;4.50;;;;;;;15.44;56.70;97969.50;1782087;80;21476;-77
2021/05/20 09:40:59;;;;;;;5.10;3.83;;;;;;;15.63;55.59;97966.58;1782266;80;20977;-76
2021/05/20 09:43:34;;;;;;;8.95;5.17;;;;;;;15.32;53.18;97972.57;1756075;80;21412;-76
2021/05/20 09:46:15;;;;;;;9.65;5.35;;;;;;;14.78;53.99;97972.47;1782322;80;21507;-77
2021/05/20 09:48:43;;;;;;;8.48;4.75;;;;;;;14.28;55.99;97983.38;1782189;80;21412;-76
2021/05/20 09:51:25;;;;;;;7.60;3.70;;;;;;;14.06;57.29;97986.80;1782407;80;21040;-76
2021/05/20 09:53:52;;;;;;;8.38;4.35;;;;;;;13.63;58.89;97979.45;1782188;80;21412;-76
2021/05/20 09:56:43;;;;;;;10.55;4.17;;;;;;;13.39;60.51;97981.52;1782156;80;20941;-76
2021/05/20 09:59:12;;;;;;;15.70;4.12;;;;;;;13.31;60.40;97986.28;1780987;80;21036;-77
2021/05/20 10:01:36;;;;;;;6.60;4.60;;;;;;;13.17;61.79;97988.39;1781728;80;21908;-76
2021/05/20 10:04:03;;;;;;;5.22;3.95;;;;;;;13.32;61.06;97984.62;1782231;80;20916;-76
2021/05/20 10:06:37;;;;;;;7.45;4.83;;;;;;;13.56;61.09;97979.03;1782328;80;20941;-76
2021/05/20 10:09:05;;;;;;;8.45;4.55;;;;;;;13.71;61.06;97985.57;1782200;80;21016;-76
2021/05/20 10:11:32;;;;;;;10.55;6.05;;;;;;;14.07;60.63;97980.23;1782298;80;20997;-76
2021/05/20 10:13:58;;;;;;;6.70;4.65;;;;;;;14.50;59.92;97976.39;1782209;80;21164;-76
2021/05/20 10:16:27;;;;;;;8.08;4.60;;;;;;;14.70;58.15;97969.66;1782155;80;21448;-76
2021/05/20 10:18:56;;;;;;;6.12;4.25;;;;;;;15.83;56.31;97967.98;1782354;80;20962;-76
2021/05/20 10:21:24;;;;;;;9.25;3.95;;;;;;;18.23;53.50;97956.47;1775695;80;21057;-76
2021/05/20 10:23:52;;;;;;;4.65;3.37;;;;;;;21.19;48.64;97954.80;1773601;81;21011;-76
2021/05/20 10:26:18;;;;;;;4.57;2.67;;;;;;;21.30;40.25;97956.75;1773834;81;21506;-76
2021/05/20 10:28:44;;;;;;;4.33;3.22;;;;;;;22.13;36.57;97952.25;1773628;81;21444;-76
2021/05/20 10:31:10;;;;;;;11.68;2.77;;;;;;;23.57;31.96;97947.24;1773712;81;20874;-76
2021/05/20 10:33:36;;;;;;;4.50;2.35;;;;;;;23.63;37.52;97948.00;1773681;81;20917;-78
2021/05/20 10:36:02;;;;;;;5.05;2.52;;;;;;;22.23;39.47;97944.80;1773656;80;20985;-78
2021/05/20 10:38:34;;;;;;;12.63;2.25;;;;;;;22.22;40.00;97941.03;1773724;81;21541;-78
2021/05/20 10:41:19;;;;;;;4.55;2.22;;;;;;;22.25;31.97;97940.30;1814724;79;21493;-77
2021/05/20 10:44:03;;;;;;;8.73;2.83;;;;;;;21.19;33.91;97937.69;1814824;78;21390;-76
2021/05/20 10:46:29;;;;;;;4.10;2.25;;;;;;;20.60;37.32;97948.58;1797170;79;21044;-77
2021/05/20 10:48:56;;;;;;;7.70;2.50;;;;;;;19.10;39.17;97948.44;1814792;78;21456;-77
2021/05/20 10:51:32;;;;;;;9.33;2.65;;;;;;;18.31;40.79;97944.65;1785417;79;21097;-77
2021/05/20 10:54:08;;;;;;;3.40;2.25;;;;;;;17.92;41.72;97947.75;1814704;78;21028;-77
2021/05/20 10:56:42;;;;;;;3.62;2.47;;;;;;;17.27;41.28;97952.44;1814878;79;20924;-76
2021/05/20 10:59:35;;;;;;;3.25;1.77;;;;;;;19.24;39.55;97941.87;1814914;79;21456;-77
2021/05/20 11:02:01;;;;;;;3.45;2.10;;;;;;;22.05;32.53;97938.03;1814745;79;20926;-76
2021/05/20 11:04:37;;;;;;;3.90;1.77;;;;;;;21.15;35.92;97941.52;1815340;79;21085;-76
2021/05/20 11:07:03;;;;;;;3.27;1.95;;;;;;;20.42;36.77;97941.09;1814683;78;20945;-77
2021/05/20 11:09:48;;;;;;;3.47;1.50;;;;;;;19.78;36.56;97950.84;1815356;78;20960;-77
2021/05/20 11:12:17;;;;;;;2.08;1.02;;;;;;;18.43;34.98;97949.41;1814730;78;20941;-77
2021/05/20 11:14:43;;;;;;;;;;;;;;;17.69;35.17;97945.81;1817478;79;20977;-77
2021/05/20 11:17:35;;;;;;;5.35;2.75;;;;;;;17.59;37.08;97948.31;1814707;78;20968;-76
2021/05/20 11:20:26;;;;;;;8.90;1.75;;;;;;;19.71;34.04;97943.72;1814612;78;21036;-77
2021/05/20 11:23:19;;;;;;;10.18;1.72;;;;;;;22.70;29.63;97932.05;1814750;79;20932;-76
2021/05/20 11:25:45;;;;;;;2.12;1.10;;;;;;;24.79;25.43;97932.86;1815102;78;20972;-76
2021/05/20 11:28:11;;;;;;;1.47;1.20;;;;;;;24.37;22.71;97931.08;1815179;79;21013;-76
2021/05/20 11:30:37;;;;;;;3.92;1.40;;;;;;;25.05;22.84;97932.04;1814974;78;20962;-77
2021/05/20 11:33:04;;;;;;;5.80;2.02;;;;;;;27.50;24.63;97925.38;1814704;78;21457;-76
2021/05/20 11:35:38;;;;;;;7.65;4.78;;;;;;;29.19;23.83;97923.50;1785624;79;20997;-76
2021/05/20 11:38:01;;;;;;;6.42;1.98;;;;;;;29.40;20.12;97930.39;1814081;79;20993;-78